createdAt,value
2024-02-01T00:00:02.329Z,101428.53
2024-02-01T00:02:29.198Z,101424.97
2024-02-01T00:04:55.994Z,101428.13
2024-02-01T00:07:22.733Z,101428.66
2024-02-01T00:09:49.815Z,101426.53
2024-02-01T00:12:16.733Z,101423.75
2024-02-01T00:14:44.404Z,101432.31
2024-02-01T00:17:11.225Z,101430.13
2024-02-01T00:19:38.020Z,101427.31
2024-02-01T00:22:05.103Z,101424.75
2024-02-01T00:24:32.822Z,101422.00
2024-02-01T00:26:59.653Z,101417.59
2024-02-01T00:29:26.900Z,101415.41
2024-02-01T00:31:53.574Z,101411.09
2024-02-01T00:34:20.485Z,101417.28
2024-02-01T00:36:47.294Z,101412.41
2024-02-01T00:39:14.263Z,101408.47
2024-02-01T00:41:41.141Z,101403.19
2024-02-01T00:44:08.212Z,101398.31
2024-02-01T00:46:34.940Z,101395.94
2024-02-01T00:49:01.961Z,101396.63
2024-02-01T00:51:28.772Z,101397.25
2024-02-01T00:53:55.577Z,101392.63
2024-02-01T00:56:22.324Z,101393.28
2024-02-01T00:58:49.059Z,101387.41
2024-02-01T01:01:15.857Z,101387.41
2024-02-01T01:03:42.672Z,101381.88
2024-02-01T01:06:09.555Z,101385.19
2024-02-01T01:08:37.299Z,101375.69
2024-02-01T01:11:05.247Z,101376.63
2024-02-01T01:13:32.138Z,101368.34
2024-02-01T01:15:58.930Z,101364.34
2024-02-01T01:18:25.838Z,101359.72
2024-02-01T01:20:52.876Z,101359.66
2024-02-01T01:23:19.569Z,101359.38
2024-02-01T01:25:46.374Z,101341.66
2024-02-01T01:28:13.081Z,101347.59
2024-02-01T01:30:39.758Z,101347.03
2024-02-01T01:33:06.724Z,101347.22
2024-02-01T01:35:33.546Z,101334.81
2024-02-01T01:38:00.246Z,101334.09
2024-02-01T01:40:27.174Z,101337.28
2024-02-01T01:42:53.869Z,101342.13
2024-02-01T01:45:20.735Z,101340.44
2024-02-01T01:47:47.995Z,101330.91
2024-02-01T01:50:14.968Z,101330.66
2024-02-01T01:52:46.026Z,101329.03
2024-02-01T01:55:13.894Z,101326.34
2024-02-01T01:57:41.131Z,101322.50
2024-02-01T02:00:09.221Z,101319.66
2024-02-01T02:02:36.390Z,101324.66
2024-02-01T02:05:03.367Z,101317.47
2024-02-01T02:07:30.061Z,101318.72
2024-02-01T02:10:02.133Z,101319.66
2024-02-01T02:12:29.258Z,101313.03
2024-02-01T02:15:00.933Z,101307.59
2024-02-01T02:17:28.905Z,101311.81
2024-02-01T02:19:55.859Z,101302.75
2024-02-01T02:22:26.716Z,101309.88
2024-02-01T02:24:53.796Z,101303.81
2024-02-01T02:27:21.644Z,101298.53
2024-02-01T02:29:48.815Z,101290.59
2024-02-01T02:32:15.886Z,101292.47
2024-02-01T02:34:42.863Z,101290.94
2024-02-01T02:37:10.141Z,101284.28
2024-02-01T02:39:38.535Z,101288.06
2024-02-01T02:42:05.858Z,101288.19
2024-02-01T02:44:32.735Z,101270.91
2024-02-01T02:46:59.554Z,101270.69
2024-02-01T02:49:26.420Z,101283.00
2024-02-01T02:51:53.459Z,101285.44
2024-02-01T02:54:20.266Z,101281.63
2024-02-01T02:56:47.076Z,101287.34
2024-02-01T02:59:13.793Z,101283.34
2024-02-01T03:01:41.561Z,101273.97
2024-02-01T03:04:09.721Z,101282.03
2024-02-01T03:06:36.897Z,101278.41
2024-02-01T03:09:04.254Z,101268.41
2024-02-01T03:11:31.081Z,101273.31
2024-02-01T03:13:57.915Z,101272.19
2024-02-01T03:16:24.682Z,101278.88
2024-02-01T03:18:52.049Z,101277.88
2024-02-01T03:21:20.632Z,101273.56
2024-02-01T03:23:49.233Z,101278.41
2024-02-01T03:26:16.179Z,101279.50
2024-02-01T03:28:44.461Z,101275.97
2024-02-01T03:31:13.160Z,101269.66
2024-02-01T03:33:46.110Z,101271.66
2024-02-01T03:36:13.480Z,101268.47
2024-02-01T03:38:44.270Z,101259.00
2024-02-01T03:41:12.772Z,101261.59
2024-02-01T03:43:40.159Z,101260.50
2024-02-01T03:46:06.996Z,101251.94
2024-02-01T03:48:34.411Z,101258.06
2024-02-01T03:51:01.984Z,101255.13
2024-02-01T03:53:29.215Z,101254.34
2024-02-01T03:55:55.951Z,101247.88
2024-02-01T03:58:22.909Z,101240.28
2024-02-01T04:00:51.769Z,101237.28
2024-02-01T04:03:18.786Z,101235.13
2024-02-01T04:05:45.690Z,101231.47
2024-02-01T04:08:17.425Z,101237.31
2024-02-01T04:10:46.350Z,101229.78
2024-02-01T04:13:12.983Z,101228.09
2024-02-01T04:15:39.681Z,101233.94
2024-02-01T04:18:09.272Z,101230.03
2024-02-01T04:20:36.382Z,101227.94
2024-02-01T04:23:03.477Z,101224.69
2024-02-01T04:25:30.824Z,101220.88
2024-02-01T04:27:57.676Z,101217.09
2024-02-01T04:30:25.565Z,101225.47
2024-02-01T04:32:52.745Z,101214.84
2024-02-01T04:35:19.667Z,101212.59
2024-02-01T04:37:46.768Z,101213.00
2024-02-01T04:40:13.892Z,101206.19
2024-02-01T04:42:41.800Z,101200.63
2024-02-01T04:45:10.030Z,101198.94
2024-02-01T04:47:37.530Z,101191.03
2024-02-01T04:50:06.125Z,101194.34
2024-02-01T04:52:34.886Z,101190.00
2024-02-01T04:55:04.384Z,101180.09
2024-02-01T04:57:31.727Z,101188.03
2024-02-01T04:59:58.469Z,101178.03
2024-02-01T05:02:25.298Z,101181.63
2024-02-01T05:04:51.990Z,101176.88
2024-02-01T05:07:18.726Z,101180.41
2024-02-01T05:09:45.600Z,101172.50
2024-02-01T05:12:12.686Z,101177.56
2024-02-01T05:14:39.787Z,101184.50
2024-02-01T05:17:06.545Z,101178.47
2024-02-01T05:19:33.500Z,101173.19
2024-02-01T05:22:00.218Z,101180.84
2024-02-01T05:24:27.474Z,101170.78
2024-02-01T05:26:54.404Z,101174.03
2024-02-01T05:29:22.716Z,101169.19
2024-02-01T05:31:54.403Z,101180.47
2024-02-01T05:34:22.742Z,101172.47
2024-02-01T05:36:52.785Z,101170.59
2024-02-01T05:39:26.768Z,101167.88
2024-02-01T05:41:55.382Z,101165.16
2024-02-01T05:44:22.405Z,101165.53
2024-02-01T05:46:50.101Z,101157.13
2024-02-01T05:49:20.214Z,101164.41
2024-02-01T05:51:49.091Z,101154.50
2024-02-01T05:54:16.475Z,101153.97
2024-02-01T05:56:46.805Z,101155.81
2024-02-01T05:59:14.834Z,101152.06
2024-02-01T06:01:42.186Z,101143.84
2024-02-01T06:04:10.637Z,101132.72
2024-02-01T06:06:48.717Z,101143.44
2024-02-01T06:09:17.315Z,101136.97
2024-02-01T06:11:45.986Z,101137.66
2024-02-01T06:14:16.481Z,101137.09
2024-02-01T06:16:45.159Z,101146.22
2024-02-01T06:19:12.328Z,101138.66
2024-02-01T06:21:39.416Z,101132.38
2024-02-01T06:24:06.821Z,101134.19
2024-02-01T06:26:33.736Z,101135.09
2024-02-01T06:29:09.060Z,101133.03
2024-02-01T06:31:42.003Z,101128.84
2024-02-01T06:34:10.503Z,101117.72
2024-02-01T06:36:52.160Z,101124.50
2024-02-01T06:39:38.686Z,101120.16
2024-02-01T06:42:15.800Z,101112.66
2024-02-01T06:44:48.068Z,101107.75
2024-02-01T06:47:25.209Z,101104.88
2024-02-01T06:50:02.476Z,101112.63
2024-02-01T06:52:41.646Z,101098.81
2024-02-01T06:55:12.312Z,101101.47
2024-02-01T06:57:48.971Z,101106.50
2024-02-01T07:00:35.995Z,101107.63
2024-02-01T07:03:04.086Z,101103.16
2024-02-01T07:05:58.136Z,101112.56
2024-02-01T07:08:55.103Z,101114.88
2024-02-01T07:11:29.580Z,101116.22
2024-02-01T07:13:56.318Z,101114.13
2024-02-01T07:16:26.258Z,101098.22
2024-02-01T07:19:14.150Z,101097.22
2024-02-01T07:22:00.263Z,101092.91
2024-02-01T07:24:46.519Z,101091.25
2024-02-01T07:27:32.533Z,101090.19
2024-02-01T07:30:19.065Z,101090.28
2024-02-01T07:33:04.482Z,101098.16
2024-02-01T07:35:49.846Z,101096.91
2024-02-01T07:38:35.218Z,101086.28
2024-02-01T07:41:20.565Z,101078.88
2024-02-01T07:44:05.559Z,101072.38
2024-02-01T07:46:50.943Z,101077.78
2024-02-01T07:49:36.495Z,101080.28
2024-02-01T07:52:22.342Z,101077.50
2024-02-01T07:55:07.565Z,101073.81
2024-02-01T07:57:52.647Z,101066.41
2024-02-01T08:00:29.827Z,101067.00
2024-02-01T08:03:15.821Z,101065.69
2024-02-01T08:06:01.577Z,101066.72
2024-02-01T08:08:28.754Z,101058.59
2024-02-01T08:10:59.759Z,101061.31
2024-02-01T08:13:27.057Z,101061.47
2024-02-01T08:15:55.829Z,101070.50
2024-02-01T08:18:24.527Z,101068.00
2024-02-01T08:20:51.517Z,101067.81
2024-02-01T08:23:21.113Z,101068.41
2024-02-01T08:25:48.209Z,101074.06
2024-02-01T08:28:16.304Z,101068.41
2024-02-01T08:30:53.916Z,101068.34
2024-02-01T08:33:20.784Z,101062.72
2024-02-01T08:35:48.978Z,101060.09
2024-02-01T08:38:19.367Z,101062.38
2024-02-01T08:40:47.608Z,101054.28
2024-02-01T08:43:14.894Z,101061.56
2024-02-01T08:45:46.209Z,101058.75
2024-02-01T08:48:13.814Z,101060.22
2024-02-01T08:50:50.079Z,101055.88
2024-02-01T08:53:18.808Z,101050.88
2024-02-01T08:55:46.758Z,101046.75
2024-02-01T08:58:14.331Z,101051.41
2024-02-01T09:00:46.536Z,101044.47
2024-02-01T09:03:17.745Z,101037.91
2024-02-01T09:05:52.621Z,101029.91
2024-02-01T09:08:41.946Z,101026.44
2024-02-01T09:11:19.050Z,101020.66
2024-02-01T09:13:48.059Z,101017.38
2024-02-01T09:16:20.746Z,101022.25
2024-02-01T09:18:48.256Z,101020.84
2024-02-01T09:21:15.700Z,101018.75
2024-02-01T09:23:42.666Z,101009.84
2024-02-01T09:26:10.560Z,101013.28
2024-02-01T09:28:42.920Z,101010.59
2024-02-01T09:31:23.879Z,101005.66
2024-02-01T09:33:51.980Z,100999.84
2024-02-01T09:36:20.121Z,100997.72
2024-02-01T09:38:47.267Z,100983.25
2024-02-01T09:41:20.543Z,100975.38
2024-02-01T09:43:52.507Z,100979.00
2024-02-01T09:46:20.569Z,100983.16
2024-02-01T09:48:48.119Z,100972.78
2024-02-01T09:51:21.435Z,100967.84
2024-02-01T09:53:49.516Z,100964.84
2024-02-01T09:56:17.929Z,100958.91
2024-02-01T09:58:45.538Z,100956.41
2024-02-01T10:01:14.129Z,100954.59
2024-02-01T10:03:45.889Z,100951.63
2024-02-01T10:06:13.898Z,100955.06
2024-02-01T10:08:41.280Z,100948.28
2024-02-01T10:11:08.298Z,100945.16
2024-02-01T10:13:37.374Z,100936.13
2024-02-01T10:16:14.054Z,100935.66
2024-02-01T10:18:43.164Z,100937.53
2024-02-01T10:21:35.612Z,100935.31
2024-02-01T10:24:08.723Z,100924.94
2024-02-01T10:26:36.172Z,100933.19
2024-02-01T10:29:02.898Z,100925.66
2024-02-01T10:31:32.573Z,100926.31
2024-02-01T10:34:11.941Z,100912.41
2024-02-01T10:36:44.445Z,100908.47
2024-02-01T10:39:22.579Z,100915.84
2024-02-01T10:41:57.333Z,100904.41
2024-02-01T10:44:35.139Z,100905.09
2024-02-01T10:47:06.525Z,100900.78
2024-02-01T10:49:39.065Z,100892.38
2024-02-01T10:52:08.157Z,100884.59
2024-02-01T10:54:36.638Z,100878.81
2024-02-01T10:57:07.988Z,100869.25
2024-02-01T10:59:37.358Z,100865.88
2024-02-01T11:02:04.421Z,100853.63
2024-02-01T11:04:39.979Z,100842.03
2024-02-01T11:07:07.701Z,100843.50
2024-02-01T11:09:37.284Z,100843.56
2024-02-01T11:12:15.472Z,100842.59
2024-02-01T11:14:42.328Z,100834.50
2024-02-01T11:17:19.898Z,100838.13
2024-02-01T11:19:50.486Z,100837.53
2024-02-01T11:22:19.538Z,100838.25
2024-02-01T11:24:46.673Z,100843.22
2024-02-01T11:27:22.031Z,100832.69
2024-02-01T11:29:53.972Z,100824.53
2024-02-01T11:32:25.306Z,100823.72
2024-02-01T11:34:54.819Z,100816.00
2024-02-01T11:37:25.810Z,100819.69
2024-02-01T11:39:55.050Z,100819.44
2024-02-01T11:42:31.907Z,100816.69
2024-02-01T11:45:03.206Z,100805.56
2024-02-01T11:47:33.454Z,100803.72
2024-02-01T11:50:00.741Z,100810.06
2024-02-01T11:52:45.653Z,100809.75
2024-02-01T11:55:13.268Z,100796.31
2024-02-01T11:57:55.016Z,100792.31
2024-02-01T12:00:44.137Z,100788.56
2024-02-01T12:03:17.293Z,100790.13
2024-02-01T12:05:47.581Z,100790.44
2024-02-01T12:08:15.042Z,100782.19
2024-02-01T12:10:47.451Z,100771.72
2024-02-01T12:13:17.088Z,100779.31
2024-02-01T12:15:53.507Z,100779.09
2024-02-01T12:18:21.281Z,100784.00
2024-02-01T12:20:51.957Z,100766.13
2024-02-01T12:23:18.809Z,100763.13
2024-02-01T12:25:47.327Z,100761.13
2024-02-01T12:28:14.524Z,100753.13
2024-02-01T12:30:46.543Z,100745.22
2024-02-01T12:33:15.831Z,100740.13
2024-02-01T12:35:43.425Z,100738.59
2024-02-01T12:38:11.314Z,100730.00
2024-02-01T12:40:38.285Z,100730.78
2024-02-01T12:43:06.311Z,100727.03
2024-02-01T12:45:33.484Z,100725.78
2024-02-01T12:48:00.409Z,100716.91
2024-02-01T12:50:27.595Z,100717.63
2024-02-01T12:52:54.454Z,100712.00
2024-02-01T12:55:21.817Z,100713.47
2024-02-01T12:57:48.776Z,100703.91
2024-02-01T13:00:16.877Z,100707.38
2024-02-01T13:02:46.359Z,100702.97
2024-02-01T13:05:13.881Z,100699.50
2024-02-01T13:07:40.724Z,100701.38
2024-02-01T13:10:14.694Z,100692.22
2024-02-01T13:12:56.597Z,100685.19
2024-02-01T13:15:28.508Z,100682.69
2024-02-01T13:17:56.101Z,100685.53
2024-02-01T13:20:23.519Z,100680.22
2024-02-01T13:22:52.162Z,100675.88
2024-02-01T13:25:22.255Z,100682.41
2024-02-01T13:27:51.778Z,100669.22
2024-02-01T13:30:20.565Z,100676.16
2024-02-01T13:32:49.903Z,100672.41
2024-02-01T13:35:17.183Z,100676.81
2024-02-01T13:37:47.928Z,100675.00
2024-02-01T13:40:18.778Z,100672.00
2024-02-01T13:42:46.662Z,100669.75
2024-02-01T13:45:14.451Z,100667.72
2024-02-01T13:47:52.946Z,100669.00
2024-02-01T13:50:22.611Z,100666.00
2024-02-01T13:52:50.572Z,100655.22
2024-02-01T13:55:17.378Z,100664.75
2024-02-01T13:57:44.132Z,100667.00
2024-02-01T14:00:17.455Z,100667.72
2024-02-01T14:02:45.940Z,100660.47
2024-02-01T14:05:14.004Z,100661.06
2024-02-01T14:07:42.199Z,100656.41
2024-02-01T14:10:10.640Z,100655.63
2024-02-01T14:12:41.849Z,100650.34
2024-02-01T14:15:09.691Z,100643.25
2024-02-01T14:17:36.738Z,100649.97
2024-02-01T14:20:04.904Z,100640.22
2024-02-01T14:22:31.852Z,100639.69
2024-02-01T14:24:58.553Z,100635.09
2024-02-01T14:27:26.129Z,100624.22
2024-02-01T14:29:52.971Z,100623.41
2024-02-01T14:32:19.774Z,100622.41
2024-02-01T14:34:47.750Z,100627.13
2024-02-01T14:37:14.919Z,100625.69
2024-02-01T14:39:43.205Z,100614.06
2024-02-01T14:42:10.555Z,100618.78
2024-02-01T14:44:38.209Z,100617.31
2024-02-01T14:47:08.658Z,100611.72
2024-02-01T14:49:36.510Z,100618.47
2024-02-01T14:52:03.642Z,100617.41
2024-02-01T14:54:30.368Z,100619.50
2024-02-01T14:56:57.214Z,100622.78
2024-02-01T14:59:24.380Z,100624.94
2024-02-01T15:01:51.153Z,100620.28
2024-02-01T15:04:18.013Z,100612.47
2024-02-01T15:06:44.992Z,100615.75
2024-02-01T15:09:12.484Z,100614.69
2024-02-01T15:11:39.511Z,100603.25
2024-02-01T15:14:06.406Z,100601.25
2024-02-01T15:16:34.251Z,100601.09
2024-02-01T15:19:02.628Z,100604.38
2024-02-01T15:21:33.204Z,100603.38
2024-02-01T15:24:01.010Z,100601.38
2024-02-01T15:26:28.520Z,100598.97
2024-02-01T15:28:58.072Z,100601.56
2024-02-01T15:31:24.811Z,100601.53
2024-02-01T15:33:55.021Z,100598.53
2024-02-01T15:36:22.638Z,100600.28
2024-02-01T15:38:52.853Z,100598.59
2024-02-01T15:41:20.918Z,100606.81
2024-02-01T15:43:47.708Z,100597.00
2024-02-01T15:46:14.542Z,100592.19
2024-02-01T15:48:44.049Z,100596.91
2024-02-01T15:51:11.065Z,100589.34
2024-02-01T15:53:37.833Z,100582.56
2024-02-01T15:56:04.882Z,100582.16
2024-02-01T15:58:31.719Z,100580.44
2024-02-01T16:00:58.459Z,100577.78
2024-02-01T16:03:26.505Z,100575.31
2024-02-01T16:05:57.095Z,100572.91
2024-02-01T16:08:24.018Z,100566.63
2024-02-01T16:11:01.806Z,100572.06
2024-02-01T16:13:37.882Z,100562.34
2024-02-01T16:16:07.479Z,100563.25
2024-02-01T16:18:40.877Z,100560.06
2024-02-01T16:21:08.969Z,100560.50
2024-02-01T16:23:37.902Z,100574.81
2024-02-01T16:26:06.189Z,100565.09
2024-02-01T16:28:41.129Z,100566.63
2024-02-01T16:31:10.628Z,100563.63
2024-02-01T16:33:55.992Z,100558.00
2024-02-01T16:36:39.009Z,100556.28
2024-02-01T16:39:11.048Z,100552.09
2024-02-01T16:41:37.996Z,100540.75
2024-02-01T16:44:08.299Z,100554.97
2024-02-01T16:46:51.425Z,100548.53
2024-02-01T16:49:24.545Z,100544.81
2024-02-01T16:51:52.439Z,100560.38
2024-02-01T16:54:19.617Z,100551.81
2024-02-01T16:56:46.868Z,100544.50
2024-02-01T16:59:21.134Z,100544.16
2024-02-01T17:01:54.178Z,100546.28
2024-02-01T17:04:26.248Z,100549.03
2024-02-01T17:06:54.210Z,100535.72
2024-02-01T17:09:24.996Z,100527.75
2024-02-01T17:11:55.848Z,100525.28
2024-02-01T17:14:25.810Z,100515.91
2024-02-01T17:16:52.533Z,100526.56
2024-02-01T17:19:19.997Z,100522.78
2024-02-01T17:21:49.364Z,100513.66
2024-02-01T17:24:24.413Z,100514.19
2024-02-01T17:26:53.120Z,100513.47
2024-02-01T17:29:25.911Z,100519.84
2024-02-01T17:31:53.367Z,100510.44
2024-02-01T17:34:47.002Z,100506.59
2024-02-01T17:37:45.013Z,100505.16
2024-02-01T17:40:20.786Z,100504.75
2024-02-01T17:42:50.015Z,100518.47
2024-02-01T17:45:18.350Z,100502.38
2024-02-01T17:48:02.049Z,100505.25
2024-02-01T17:50:41.828Z,100503.94
2024-02-01T17:53:10.022Z,100508.47
2024-02-01T17:55:54.162Z,100482.66
2024-02-01T17:58:42.716Z,100468.50
2024-02-01T18:01:20.997Z,100463.16
2024-02-01T18:03:57.995Z,100460.44
2024-02-01T18:06:35.081Z,100458.97
2024-02-01T18:09:02.501Z,100452.50
2024-02-01T18:11:30.501Z,100453.25
2024-02-01T18:13:58.551Z,100446.69
2024-02-01T18:16:29.083Z,100454.66
2024-02-01T18:19:06.508Z,100461.78
2024-02-01T18:21:38.581Z,100450.41
2024-02-01T18:24:06.752Z,100458.91
2024-02-01T18:26:34.622Z,100451.31
2024-02-01T18:29:01.613Z,100447.63
2024-02-01T18:31:28.733Z,100440.78
2024-02-01T18:33:56.418Z,100437.94
2024-02-01T18:36:32.491Z,100454.69
2024-02-01T18:39:06.949Z,100444.25
2024-02-01T18:41:35.056Z,100441.47
2024-02-01T18:44:14.298Z,100446.84
2024-02-01T18:46:52.683Z,100448.25
2024-02-01T18:49:27.748Z,100435.22
2024-02-01T18:51:58.032Z,100444.19
2024-02-01T18:54:34.035Z,100439.19
2024-02-01T18:57:01.862Z,100431.53
2024-02-01T18:59:31.945Z,100431.75
2024-02-01T19:02:03.989Z,100431.31
2024-02-01T19:04:32.471Z,100429.63
2024-02-01T19:07:00.028Z,100435.06
2024-02-01T19:09:45.914Z,100427.69
2024-02-01T19:12:44.640Z,100421.88
2024-02-01T19:15:46.717Z,100425.91
2024-02-01T19:18:16.427Z,100417.03
2024-02-01T19:20:47.542Z,100406.22
2024-02-01T19:23:19.783Z,100416.22
2024-02-01T19:25:50.489Z,100415.75
2024-02-01T19:28:47.645Z,100407.06
2024-02-01T19:31:18.136Z,100411.97
2024-02-01T19:33:48.308Z,100401.50
2024-02-01T19:36:30.301Z,100393.19
2024-02-01T19:39:02.001Z,100394.78
2024-02-01T19:41:28.793Z,100397.63
2024-02-01T19:43:55.715Z,100402.28
2024-02-01T19:46:22.958Z,100384.88
2024-02-01T19:48:50.171Z,100392.44
2024-02-01T19:51:17.139Z,100395.16
2024-02-01T19:53:44.232Z,100375.03
2024-02-01T19:56:11.393Z,100364.78
2024-02-01T19:58:38.276Z,100363.41
2024-02-01T20:01:05.344Z,100367.00
2024-02-01T20:03:32.257Z,100362.31
2024-02-01T20:05:59.282Z,100357.94
2024-02-01T20:08:26.066Z,100353.06
2024-02-01T20:10:53.166Z,100360.47
2024-02-01T20:13:20.068Z,100360.38
2024-02-01T20:15:46.955Z,100362.78
2024-02-01T20:18:22.404Z,100342.25
2024-02-01T20:20:50.603Z,100348.59
2024-02-01T20:23:18.862Z,100338.97
2024-02-01T20:25:45.962Z,100343.09
2024-02-01T20:28:47.957Z,100341.88
2024-02-01T20:31:27.888Z,100341.53
2024-02-01T20:33:56.686Z,100340.81
2024-02-01T20:36:37.946Z,100332.41
2024-02-01T20:39:04.818Z,100334.25
2024-02-01T20:41:33.882Z,100331.34
2024-02-01T20:44:01.076Z,100339.25
2024-02-01T20:46:27.845Z,100328.34
2024-02-01T20:48:54.788Z,100321.59
2024-02-01T20:51:58.110Z,100319.16
2024-02-01T20:54:33.992Z,100322.22
2024-02-01T20:57:22.490Z,100315.22
2024-02-01T20:59:53.135Z,100316.31
2024-02-01T21:02:54.754Z,100307.94
2024-02-01T21:05:27.605Z,100307.91
2024-02-01T21:07:55.090Z,100305.34
2024-02-01T21:10:24.469Z,100294.22
2024-02-01T21:13:11.647Z,100297.69
2024-02-01T21:15:40.936Z,100295.81
2024-02-01T21:18:18.067Z,100292.34
2024-02-01T21:20:46.844Z,100284.84
2024-02-01T21:23:48.217Z,100283.94
2024-02-01T21:26:15.594Z,100278.22
2024-02-01T21:28:43.542Z,100280.13
2024-02-01T21:31:25.615Z,100276.28
2024-02-01T21:33:56.533Z,100272.78
2024-02-01T21:36:24.046Z,100276.53
2024-02-01T21:38:51.723Z,100277.84
2024-02-01T21:41:20.443Z,100276.63
2024-02-01T21:43:47.302Z,100283.25
2024-02-01T21:46:17.579Z,100271.72
2024-02-01T21:48:44.628Z,100275.94
2024-02-01T21:51:11.499Z,100267.63
2024-02-01T21:53:38.550Z,100270.94
2024-02-01T21:56:05.817Z,100257.81
2024-02-01T21:58:32.620Z,100265.94
2024-02-01T22:01:01.468Z,100263.31
2024-02-01T22:03:28.944Z,100267.00
2024-02-01T22:05:55.941Z,100271.22
2024-02-01T22:08:22.746Z,100265.41
2024-02-01T22:10:49.574Z,100264.41
2024-02-01T22:13:16.394Z,100267.44
2024-02-01T22:15:43.380Z,100259.03
2024-02-01T22:18:10.256Z,100262.22
2024-02-01T22:20:37.236Z,100263.69
2024-02-01T22:23:04.815Z,100271.84
2024-02-01T22:25:31.575Z,100264.72
2024-02-01T22:27:58.376Z,100258.25
2024-02-01T22:30:25.336Z,100252.38
2024-02-01T22:32:52.460Z,100254.44
2024-02-01T22:35:19.447Z,100252.59
2024-02-01T22:37:46.528Z,100247.34
2024-02-01T22:40:13.537Z,100241.53
2024-02-01T22:42:40.396Z,100249.03
2024-02-01T22:45:09.398Z,100245.84
2024-02-01T22:47:36.880Z,100233.69
2024-02-01T22:50:04.220Z,100234.31
2024-02-01T22:52:31.071Z,100230.94
2024-02-01T22:54:57.932Z,100227.91
2024-02-01T22:57:24.680Z,100238.03
2024-02-01T22:59:54.724Z,100229.06
2024-02-01T23:02:21.576Z,100230.41
2024-02-01T23:04:48.333Z,100232.59
2024-02-01T23:07:15.288Z,100233.56
2024-02-01T23:09:42.317Z,100222.69
2024-02-01T23:12:09.491Z,100227.66
2024-02-01T23:14:36.255Z,100215.97
2024-02-01T23:17:03.044Z,100211.13
2024-02-01T23:19:29.882Z,100226.72
2024-02-01T23:21:57.298Z,100218.97
2024-02-01T23:24:24.560Z,100221.28
2024-02-01T23:26:51.430Z,100230.50
2024-02-01T23:29:18.285Z,100224.59
2024-02-01T23:31:45.098Z,100221.59
2024-02-01T23:34:12.062Z,100218.25
2024-02-01T23:36:39.082Z,100218.09
2024-02-01T23:39:05.906Z,100236.28
2024-02-01T23:41:32.771Z,100228.81
2024-02-01T23:43:59.591Z,100226.19
2024-02-01T23:46:26.288Z,100236.47
2024-02-01T23:48:53.246Z,100223.47
2024-02-01T23:51:20.559Z,100231.84
2024-02-01T23:53:47.417Z,100249.63
2024-02-01T23:56:14.198Z,100257.19
2024-02-01T23:58:41.217Z,100274.47
